Northern Power — A8TL6 — position and weather

sailwx.info

Track history (hours):
 
Tides and Currents Weather Stations Pressure Air Temp Water Temp Dewpoint Dewpoint Depression Visibility Wind Speed Wind Dir Waves Ship Positions

Northern Power

Last reported at 2018-Feb-15 21:25 UTC. Time now 2018-Feb-20 02:14 UTC.
Position S 04°47' E 011°50'.

Length 264 m; draft 12.1 m.

Type: Cargo ship. MMSI: 636091835.

Date/timePositionNaut miles runAvg speedWind from/ knotsBaromVisibWave heightAir tempDewpointWater temp
2018-Feb-15 21:25S 04°47' E 011°50'24 8.3
2018-Feb-15 18:28S 05°02' E 011°31'917.3
2018-Feb-15 17:57S 05°05' E 011°22'918.6
2018-Feb-15 17:28S 05°08' E 011°14'918.8
2018-Feb-15 17:00S 05°10' E 011°05'917.8
2018-Feb-15 16:30S 05°16' E 010°58'  
2018-Feb-08 01:30S 29°53' E 031°02'0 0.0
2018-Feb-08 01:00S 29°53' E 031°02'0 0.0
2018-Feb-08 00:30S 29°53' E 031°02'0 0.0
2018-Feb-08 00:00S 29°53' E 031°02'0 0.0
2018-Feb-07 23:30S 29°53' E 031°02'0 0.0
2018-Feb-07 23:00S 29°53' E 031°02'0 0.0
2018-Feb-07 22:30S 29°53' E 031°02'0 0.0
2018-Feb-07 21:57S 29°53' E 031°02'0 0.0
2018-Feb-07 21:30S 29°53' E 031°02'0 0.0
2018-Feb-07 09:30S 29°53' E 031°02'0 0.0
2018-Feb-07 09:00S 29°53' E 031°02'0 0.0
2018-Feb-07 08:30S 29°53' E 031°02'0 0.0
2018-Feb-07 07:43S 29°53' E 031°02'0 0.0
2018-Feb-07 07:28S 29°53' E 031°02'0 0.0
2018-Feb-07 06:58S 29°53' E 031°02'0 0.0
2018-Feb-07 06:28S 29°53' E 031°02'0 0.0
2018-Feb-07 05:58S 29°53' E 031°02'0 0.1
2018-Feb-07 05:30S 29°53' E 031°02'2 4.0
2018-Feb-07 05:00S 29°52' E 031°04'3 5.3
2018-Feb-07 04:30S 29°49' E 031°05'3 6.9
2018-Feb-07 04:00S 29°48' E 031°09'611.8
2018-Feb-07 03:30S 29°48' E 031°16'2 5.0
2018-Feb-07 03:00S 29°50' E 031°16'1 1.0
2018-Feb-07 02:30S 29°50' E 031°16'0 0.9
2018-Feb-07 02:00S 29°50' E 031°15'1 1.2
2018-Feb-07 01:30S 29°49' E 031°15'2 4.7
2018-Feb-07 01:00S 29°48' E 031°16'612.4
2018-Feb-07 00:30S 29°45' E 031°23'713.2
2018-Feb-07 00:00S 29°43' E 031°30'713.5
2018-Feb-06 23:30S 29°41' E 031°38'713.3
2018-Feb-06 23:00S 29°39' E 031°45'714.5
2018-Feb-06 22:30S 29°37' E 031°53'714.9
2018-Feb-06 22:00S 29°35' E 032°01'714.8
2018-Feb-06 21:30S 29°33' E 032°09'  
Track history (hours):
 
Tides and Currents Weather Stations Pressure Air Temp Water Temp Dewpoint Dewpoint Depression Visibility Wind Speed Wind Dir Waves Ship Positions

Northern Power

Last reported at 2018-Feb-15 21:25 UTC. Time now 2018-Feb-20 02:14 UTC.
Position S 04°47' E 011°50'.

Length 264 m; draft 12.1 m.

Type: Cargo ship. MMSI: 636091835.

Date/timePositionNaut miles runAvg speedWind from/ knotsBaromVisibWave heightAir tempDewpointWater temp
2018-Feb-15 21:25S 04°47' E 011°50'24 8.3
2018-Feb-15 18:28S 05°02' E 011°31'917.3
2018-Feb-15 17:57S 05°05' E 011°22'918.6
2018-Feb-15 17:28S 05°08' E 011°14'918.8
2018-Feb-15 17:00S 05°10' E 011°05'917.8
2018-Feb-15 16:30S 05°16' E 010°58'  
2018-Feb-08 01:30S 29°53' E 031°02'0 0.0
2018-Feb-08 01:00S 29°53' E 031°02'0 0.0
2018-Feb-08 00:30S 29°53' E 031°02'0 0.0
2018-Feb-08 00:00S 29°53' E 031°02'0 0.0
2018-Feb-07 23:30S 29°53' E 031°02'0 0.0
2018-Feb-07 23:00S 29°53' E 031°02'0 0.0
2018-Feb-07 22:30S 29°53' E 031°02'0 0.0
2018-Feb-07 21:57S 29°53' E 031°02'0 0.0
2018-Feb-07 21:30S 29°53' E 031°02'0 0.0
2018-Feb-07 09:30S 29°53' E 031°02'0 0.0
2018-Feb-07 09:00S 29°53' E 031°02'0 0.0
2018-Feb-07 08:30S 29°53' E 031°02'0 0.0
2018-Feb-07 07:43S 29°53' E 031°02'0 0.0
2018-Feb-07 07:28S 29°53' E 031°02'0 0.0
2018-Feb-07 06:58S 29°53' E 031°02'0 0.0
2018-Feb-07 06:28S 29°53' E 031°02'0 0.0
2018-Feb-07 05:58S 29°53' E 031°02'0 0.1
2018-Feb-07 05:30S 29°53' E 031°02'2 4.0
2018-Feb-07 05:00S 29°52' E 031°04'3 5.3
2018-Feb-07 04:30S 29°49' E 031°05'3 6.9
2018-Feb-07 04:00S 29°48' E 031°09'611.8
2018-Feb-07 03:30S 29°48' E 031°16'2 5.0
2018-Feb-07 03:00S 29°50' E 031°16'1 1.0
2018-Feb-07 02:30S 29°50' E 031°16'0 0.9
2018-Feb-07 02:00S 29°50' E 031°15'1 1.2
2018-Feb-07 01:30S 29°49' E 031°15'2 4.7
2018-Feb-07 01:00S 29°48' E 031°16'612.4
2018-Feb-07 00:30S 29°45' E 031°23'713.2
2018-Feb-07 00:00S 29°43' E 031°30'713.5
2018-Feb-06 23:30S 29°41' E 031°38'713.3
2018-Feb-06 23:00S 29°39' E 031°45'714.5
2018-Feb-06 22:30S 29°37' E 031°53'714.9
2018-Feb-06 22:00S 29°35' E 032°01'714.8
2018-Feb-06 21:30S 29°33' E 032°09'  

Dump ship's entire track history